Time;durP1;ratioP1;P1;durP2;ratioP2;P2;SDS_P1;SDS_P2;PMS_P1;PMS_P2;Temp;Humidity;BMP_temperature;BMP_pressure;BME280_temperature;BME280_humidity;BME280_pressure;Samples;Min_cycle;Max_cycle;Signal;HPM_P1;HPM_P2
2023/09/06 00:02:06;;;;;;;5.20;4.47;;;17.40;99.90;;;;;;5090080;28;20251;-70
2023/09/06 00:04:32;;;;;;;4.73;3.93;;;17.30;99.90;;;;;;5089720;28;20201;-70
2023/09/06 00:06:58;;;;;;;5.50;4.57;;;17.20;99.90;;;;;;5089871;28;20812;-70
2023/09/06 00:09:23;;;;;;;4.00;3.60;;;17.00;99.90;;;;;;5091070;28;20291;-70
2023/09/06 00:11:49;;;;;;;4.77;4.10;;;17.00;99.90;;;;;;5091147;28;20190;-71
2023/09/06 00:14:15;;;;;;;4.77;3.70;;;16.90;99.90;;;;;;5091354;28;20196;-71
2023/09/06 00:16:41;;;;;;;8.00;4.40;;;16.80;99.90;;;;;;5089493;28;20214;-70
2023/09/06 00:19:07;;;;;;;8.13;4.00;;;16.80;99.90;;;;;;5091143;28;20535;-71
2023/09/06 00:21:40;;;;;;;5.20;4.30;;;16.70;99.90;;;;;;5089683;28;20512;-71
2023/09/06 00:24:06;;;;;;;5.97;3.50;;;16.50;99.90;;;;;;5090936;28;20182;-70
2023/09/06 00:26:32;;;;;;;6.17;4.40;;;16.40;99.90;;;;;;5090841;28;20740;-70
2023/09/06 00:28:57;;;;;;;5.20;4.13;;;16.50;99.90;;;;;;5090608;28;20474;-70
2023/09/06 00:31:23;;;;;;;5.70;4.47;;;16.30;99.90;;;;;;5090720;28;20204;-70
2023/09/06 00:33:49;;;;;;;7.67;4.67;;;16.20;99.90;;;;;;5090779;28;20269;-70
2023/09/06 00:36:14;;;;;;;6.87;4.77;;;16.10;99.90;;;;;;5089098;28;20205;-70
2023/09/06 00:38:40;;;;;;;6.67;4.73;;;16.00;99.90;;;;;;5089152;28;20223;-71
2023/09/06 00:41:05;;;;;;;5.57;4.43;;;15.90;99.90;;;;;;5090625;28;20667;-71
2023/09/06 00:43:31;;;;;;;5.30;4.40;;;15.90;99.90;;;;;;5090469;28;20194;-71
2023/09/06 00:45:59;;;;;;;6.87;4.57;;;15.90;99.90;;;;;;5072182;28;20361;-70
2023/09/06 00:48:26;;;;;;;5.63;4.00;;;15.80;99.90;;;;;;5088983;28;20312;-70
2023/09/06 00:50:56;;;;;;;5.87;4.90;;;15.60;99.90;;;;;;5089066;28;20815;-70
2023/09/06 00:53:24;;;;;;;6.20;4.77;;;15.70;99.90;;;;;;5090275;28;20428;-70
2023/09/06 00:55:51;;;;;;;4.90;4.40;;;15.60;99.90;;;;;;5090247;28;20471;-70
2023/09/06 00:58:18;;;;;;;6.93;4.30;;;15.60;99.90;;;;;;5089444;28;20600;-70
2023/09/06 01:00:49;;;;;;;5.50;4.90;;;15.50;99.90;;;;;;5088798;28;20435;-70
2023/09/06 01:03:15;;;;;;;5.13;3.97;;;15.40;99.90;;;;;;5090061;28;20427;-70
2023/09/06 01:05:58;;;;;;;7.80;4.37;;;15.50;99.90;;;;;;5088514;28;20446;-71
2023/09/06 01:08:28;;;;;;;4.57;4.17;;;15.20;99.90;;;;;;5089960;28;20460;-70
2023/09/06 01:11:09;;;;;;;5.70;4.50;;;15.10;99.90;;;;;;5090076;28;20461;-70
2023/09/06 01:13:35;;;;;;;5.10;4.20;;;15.10;99.90;;;;;;5088218;28;20513;-70
2023/09/06 01:16:01;;;;;;;12.13;5.13;;;15.20;99.90;;;;;;5089677;28;20537;-70
2023/09/06 01:18:27;;;;;;;6.90;4.67;;;15.10;99.90;;;;;;5088423;28;20679;-70
2023/09/06 01:21:02;;;;;;;5.37;4.60;;;14.90;99.90;;;;;;5088562;28;20825;-71
2023/09/06 01:23:39;;;;;;;5.70;4.57;;;15.00;99.90;;;;;;5089756;28;20790;-70
2023/09/06 01:26:05;;;;;;;8.53;5.27;;;14.80;99.90;;;;;;5089636;28;20981;-70
2023/09/06 01:28:31;;;;;;;10.33;5.17;;;14.80;99.90;;;;;;5088252;28;20417;-70
2023/09/06 01:30:59;;;;;;;8.23;5.53;;;14.70;99.90;;;;;;5088252;28;20452;-70
2023/09/06 01:33:27;;;;;;;5.40;4.87;;;14.70;99.90;;;;;;5089603;28;20422;-70
2023/09/06 01:35:54;;;;;;;7.20;4.80;;;14.70;99.90;;;;;;5089423;28;20864;-70
2023/09/06 01:38:19;;;;;;;5.83;3.90;;;14.60;99.90;;;;;;5089460;28;20910;-70
2023/09/06 01:40:45;;;;;;;9.03;5.67;;;14.60;99.90;;;;;;5088051;28;20429;-70
2023/09/06 01:43:11;;;;;;;7.77;4.97;;;14.70;99.90;;;;;;5088138;28;20189;-70
2023/09/06 01:45:38;;;;;;;5.70;4.90;;;14.60;99.90;;;;;;5089315;28;20446;-70
2023/09/06 01:48:04;;;;;;;5.40;4.67;;;14.60;99.90;;;;;;5089614;28;20467;-70
2023/09/06 01:50:30;;;;;;;6.57;5.27;;;14.60;99.90;;;;;;5089547;28;20576;-70
2023/09/06 01:52:56;;;;;;;6.83;4.70;;;14.50;99.90;;;;;;5089254;28;20462;-70
2023/09/06 01:55:21;;;;;;;11.60;4.50;;;14.50;99.90;;;;;;5089198;28;20219;-69
2023/09/06 01:57:47;;;;;;;9.13;4.70;;;14.40;99.90;;;;;;5089401;28;20635;-70
2023/09/06 02:00:32;;;;;;;6.53;5.87;;;14.40;99.90;;;;;;5089479;28;20212;-70
2023/09/06 02:02:59;;;;;;;7.33;5.10;;;14.30;99.90;;;;;;5089752;28;20908;-69
2023/09/06 02:05:25;;;;;;;5.83;5.00;;;14.40;99.90;;;;;;5089619;28;20469;-70
2023/09/06 02:07:50;;;;;;;6.90;4.77;;;14.30;99.90;;;;;;5088540;28;20828;-70
2023/09/06 02:10:16;;;;;;;7.33;5.57;;;14.30;99.90;;;;;;5089738;28;20296;-70
2023/09/06 02:12:42;;;;;;;8.20;4.83;;;14.20;99.90;;;;;;5089921;28;20184;-69
2023/09/06 02:15:08;;;;;;;10.07;5.20;;;14.20;99.90;;;;;;5088189;28;20452;-69
2023/09/06 02:17:35;;;;;;;5.33;4.43;;;14.30;99.90;;;;;;5089657;28;20184;-70
2023/09/06 02:20:12;;;;;;;5.63;5.03;;;14.30;99.90;;;;;;5089621;28;20433;-69
2023/09/06 02:22:41;;;;;;;7.10;4.80;;;14.30;99.90;;;;;;5089525;28;20893;-70
2023/09/06 02:25:11;;;;;;;6.87;4.90;;;14.20;99.90;;;;;;5089083;28;20452;-69
2023/09/06 02:27:37;;;;;;;8.70;5.00;;;14.10;99.90;;;;;;5089272;28;20426;-70
2023/09/06 02:30:05;;;;;;;8.03;4.90;;;14.00;99.90;;;;;;5088830;28;20476;-70
2023/09/06 02:32:31;;;;;;;7.87;5.67;;;13.80;99.90;;;;;;5088928;28;20249;-70
2023/09/06 02:34:57;;;;;;;6.23;4.53;;;13.70;99.90;;;;;;5088561;28;20416;-71
2023/09/06 02:37:23;;;;;;;6.67;5.30;;;13.70;99.90;;;;;;5087245;28;20428;-69
2023/09/06 02:39:49;;;;;;;11.13;5.30;;;13.70;99.90;;;;;;5088626;28;20437;-70
2023/09/06 02:42:14;;;;;;;7.93;5.47;;;13.80;99.90;;;;;;5088693;28;20187;-70
2023/09/06 02:44:41;;;;;;;6.63;5.17;;;13.70;99.90;;;;;;5087216;28;20978;-70
2023/09/06 02:47:11;;;;;;;6.33;5.13;;;13.70;99.90;;;;;;5088482;28;20198;-70
2023/09/06 02:49:41;;;;;;;7.70;5.10;;;13.70;99.90;;;;;;5087142;28;21161;-70
2023/09/06 02:52:12;;;;;;;11.57;6.00;;;13.80;99.90;;;;;;5087317;28;20412;-70
2023/09/06 02:54:42;;;;;;;9.17;5.80;;;13.90;99.90;;;;;;5088616;28;20529;-70
2023/09/06 02:57:10;;;;;;;7.87;5.30;;;13.90;99.90;;;;;;5088511;28;20968;-70
2023/09/06 02:59:36;;;;;;;6.53;5.10;;;14.00;99.90;;;;;;5087140;28;20447;-70
2023/09/06 03:02:05;;;;;;;6.10;4.93;;;14.00;99.90;;;;;;5088395;28;20417;-70
2023/09/06 03:04:37;;;;;;;11.33;6.03;;;14.10;99.90;;;;;;5087068;28;20190;-70
2023/09/06 03:07:07;;;;;;;5.97;5.00;;;14.00;99.90;;;;;;5088293;28;20451;-70
2023/09/06 03:09:38;;;;;;;7.07;4.77;;;13.80;99.90;;;;;;5088450;28;20491;-70
2023/09/06 03:12:11;;;;;;;7.80;5.40;;;13.70;99.90;;;;;;5088592;28;20409;-70
2023/09/06 03:14:48;;;;;;;13.47;6.00;;;13.70;99.90;;;;;;5088430;28;20515;-70
2023/09/06 03:17:22;;;;;;;5.73;4.93;;;13.80;99.90;;;;;;5088614;28;20466;-70
2023/09/06 03:19:53;;;;;;;7.30;5.27;;;13.90;99.90;;;;;;5088455;28;20439;-70
2023/09/06 03:22:20;;;;;;;6.83;5.10;;;13.90;99.90;;;;;;5088896;28;21029;-70
2023/09/06 03:24:46;;;;;;;7.57;5.37;;;13.90;99.90;;;;;;5090401;28;20463;-70
2023/09/06 03:27:16;;;;;;;9.60;5.53;;;13.90;99.90;;;;;;5092130;28;21252;-70
2023/09/06 03:29:43;;;;;;;6.63;5.60;;;13.80;99.90;;;;;;5092074;28;20389;-70
2023/09/06 03:32:09;;;;;;;7.10;5.20;;;13.80;99.90;;;;;;5092061;28;20983;-70
2023/09/06 03:34:35;;;;;;;7.00;5.40;;;13.80;99.90;;;;;;5092097;28;20428;-70
2023/09/06 03:37:04;;;;;;;5.50;5.00;;;13.80;99.90;;;;;;5091909;28;20440;-70
2023/09/06 03:39:37;;;;;;;6.27;4.80;;;13.80;99.90;;;;;;5090572;28;20420;-70
2023/09/06 03:42:08;;;;;;;10.27;5.73;;;13.70;99.90;;;;;;5092060;28;20789;-70
2023/09/06 03:44:34;;;;;;;7.77;5.20;;;13.70;99.90;;;;;;5090344;28;20425;-70
2023/09/06 03:47:00;;;;;;;10.30;5.50;;;13.60;99.90;;;;;;5092044;28;20575;-70
2023/09/06 03:49:26;;;;;;;7.27;4.90;;;13.60;99.90;;;;;;5090569;28;20568;-70
2023/09/06 03:51:52;;;;;;;6.83;5.90;;;13.70;99.90;;;;;;5091950;28;20299;-70
2023/09/06 03:54:18;;;;;;;7.70;5.00;;;13.70;99.90;;;;;;5073716;28;21103;-70
2023/09/06 03:56:44;;;;;;;7.77;5.63;;;13.70;99.90;;;;;;5092039;28;20635;-70
2023/09/06 03:59:11;;;;;;;10.33;5.83;;;13.70;99.90;;;;;;5092189;28;20297;-70
2023/09/06 04:01:37;;;;;;;6.60;5.60;;;13.70;99.90;;;;;;5090600;28;20515;-70
2023/09/06 04:04:04;;;;;;;7.67;5.30;;;13.70;99.90;;;;;;5090565;28;20428;-70
2023/09/06 04:06:30;;;;;;;6.17;5.30;;;13.60;99.90;;;;;;5092030;28;20195;-70
2023/09/06 04:08:55;;;;;;;10.47;5.40;;;13.60;99.90;;;;;;5091836;28;20461;-70
2023/09/06 04:11:21;;;;;;;8.60;5.60;;;13.40;99.90;;;;;;5090369;28;20422;-70
2023/09/06 04:13:47;;;;;;;6.10;5.50;;;13.50;99.90;;;;;;5091518;28;20199;-71
2023/09/06 04:16:13;;;;;;;7.63;6.43;;;13.50;99.90;;;;;;5091404;28;20212;-69
2023/09/06 04:18:41;;;;;;;7.87;5.00;;;13.50;99.90;;;;;;5090229;28;20658;-69
2023/09/06 04:21:08;;;;;;;7.20;5.53;;;13.50;99.90;;;;;;5089671;28;20413;-69
2023/09/06 04:23:36;;;;;;;7.97;5.77;;;13.40;99.90;;;;;;5089476;28;20466;-69
2023/09/06 04:26:03;;;;;;;6.60;5.73;;;13.40;99.90;;;;;;5089602;28;20443;-69
2023/09/06 04:28:29;;;;;;;10.73;6.50;;;13.30;99.90;;;;;;5087758;28;20413;-70
2023/09/06 04:30:54;;;;;;;8.57;5.97;;;13.20;99.90;;;;;;5089358;28;20420;-69
2023/09/06 04:33:20;;;;;;;6.30;4.93;;;13.20;99.90;;;;;;5086710;28;20178;-70
2023/09/06 04:35:47;;;;;;;9.03;5.40;;;13.30;99.90;;;;;;5089194;28;20226;-70
2023/09/06 04:38:15;;;;;;;8.87;5.80;;;13.30;99.90;;;;;;5087547;28;20214;-70
2023/09/06 04:40:45;;;;;;;10.27;5.93;;;13.20;99.90;;;;;;5089339;28;20428;-71
2023/09/06 04:43:12;;;;;;;8.90;5.70;;;13.30;99.90;;;;;;5089277;28;20893;-70
2023/09/06 04:45:38;;;;;;;7.50;6.47;;;13.30;99.90;;;;;;5089243;28;20971;-70
2023/09/06 04:48:11;;;;;;;9.60;5.80;;;13.20;99.90;;;;;;5089238;28;20912;-70
2023/09/06 04:50:39;;;;;;;7.50;5.53;;;13.10;99.90;;;;;;5089008;28;20209;-70
2023/09/06 04:53:05;;;;;;;19.07;5.87;;;13.10;99.90;;;;;;5087609;28;20830;-70
2023/09/06 04:55:35;;;;;;;8.27;5.33;;;13.10;99.90;;;;;;5088795;28;20475;-70
2023/09/06 04:58:02;;;;;;;7.17;5.83;;;13.10;99.90;;;;;;5089045;28;20405;-70
2023/09/06 05:00:36;;;;;;;10.67;5.30;;;13.00;99.90;;;;;;5088975;28;20420;-70
2023/09/06 05:03:02;;;;;;;9.10;5.83;;;13.00;99.90;;;;;;5088964;28;20824;-70
2023/09/06 05:05:28;;;;;;;7.77;5.10;;;13.00;99.90;;;;;;5088668;28;21253;-69
2023/09/06 05:07:54;;;;;;;9.73;5.70;;;13.00;99.90;;;;;;5088917;28;20429;-69
2023/09/06 05:10:19;;;;;;;7.67;6.00;;;13.10;99.90;;;;;;5088619;28;20302;-69
2023/09/06 05:12:46;;;;;;;12.13;7.20;;;13.10;99.90;;;;;;5088812;28;20712;-69
2023/09/06 05:15:12;;;;;;;10.53;5.97;;;13.10;99.90;;;;;;5087137;28;20202;-70
2023/09/06 05:17:42;;;;;;;7.50;5.70;;;13.10;99.90;;;;;;5088250;28;20767;-70
2023/09/06 05:20:27;;;;;;;7.70;5.93;;;13.10;99.90;;;;;;5088632;28;20501;-70
2023/09/06 05:22:54;;;;;;;12.00;6.83;;;13.00;99.90;;;;;;5088635;28;20450;-71
2023/09/06 05:25:19;;;;;;;8.50;6.13;;;13.10;99.90;;;;;;5088975;28;20432;-70
2023/09/06 05:27:45;;;;;;;8.80;6.37;;;13.10;99.90;;;;;;5088755;28;21170;-70
2023/09/06 05:30:11;;;;;;;8.73;6.50;;;13.10;99.90;;;;;;5087456;28;20226;-70
2023/09/06 05:32:37;;;;;;;10.90;7.30;;;13.10;99.90;;;;;;5089167;28;20674;-70
2023/09/06 05:35:03;;;;;;;8.13;6.97;;;13.10;99.90;;;;;;5088887;28;20450;-70
2023/09/06 05:37:29;;;;;;;8.27;6.40;;;13.20;99.90;;;;;;5087631;28;20618;-69
2023/09/06 05:39:55;;;;;;;7.73;6.00;;;13.30;99.90;;;;;;5089008;28;20436;-70
2023/09/06 05:42:21;;;;;;;8.00;6.17;;;13.40;99.90;;;;;;5088685;28;20424;-70
2023/09/06 05:44:46;;;;;;;9.47;6.83;;;13.50;99.90;;;;;;5086934;28;20681;-70
2023/09/06 05:47:12;;;;;;;9.50;6.90;;;13.60;99.90;;;;;;5087100;28;20228;-69
2023/09/06 05:49:37;;;;;;;7.67;5.83;;;13.80;99.90;;;;;;5087892;28;20218;-69
2023/09/06 05:52:03;;;;;;;8.83;6.97;;;13.90;99.90;;;;;;5087828;28;20190;-70
2023/09/06 05:54:29;;;;;;;9.97;6.27;;;14.10;99.90;;;;;;5086540;28;20222;-70
2023/09/06 05:56:54;;;;;;;7.97;6.47;;;14.20;99.90;;;;;;5086552;28;20445;-70
2023/09/06 05:59:21;;;;;;;16.60;6.80;;;14.30;99.90;;;;;;5087919;28;20735;-70
2023/09/06 06:01:46;;;;;;;9.27;7.13;;;14.50;99.90;;;;;;5086340;28;20210;-70
2023/09/06 06:04:13;;;;;;;13.03;7.00;;;14.60;99.90;;;;;;5087812;28;20469;-70
2023/09/06 06:06:40;;;;;;;10.80;6.40;;;14.50;99.90;;;;;;5086047;28;20763;-70
2023/09/06 06:09:06;;;;;;;15.07;9.70;;;14.60;99.90;;;;;;5087871;28;20517;-71
2023/09/06 06:11:32;;;;;;;8.97;7.27;;;14.60;99.90;;;;;;5086099;28;20433;-70
2023/09/06 06:13:57;;;;;;;8.80;6.90;;;14.60;99.90;;;;;;5087704;28;21003;-71
2023/09/06 06:16:23;;;;;;;7.63;6.03;;;14.70;99.90;;;;;;5087492;28;20214;-71
2023/09/06 06:18:49;;;;;;;7.00;5.57;;;14.80;99.90;;;;;;5087844;28;20506;-71
2023/09/06 06:21:14;;;;;;;11.40;6.03;;;15.20;99.90;;;;;;5087806;28;20547;-70
2023/09/06 06:23:43;;;;;;;6.03;5.43;;;15.60;99.90;;;;;;5086364;28;20221;-70
2023/09/06 06:26:09;;;;;;;7.73;6.20;;;15.90;99.90;;;;;;5088038;28;20197;-70
2023/09/06 06:28:35;;;;;;;10.23;5.97;;;16.30;99.90;;;;;;5087925;28;20414;-70
2023/09/06 06:31:01;;;;;;;10.43;6.00;;;16.60;99.90;;;;;;5088041;28;20446;-70
2023/09/06 06:33:26;;;;;;;8.50;5.33;;;17.00;99.90;;;;;;5086626;28;20181;-70
2023/09/06 06:35:52;;;;;;;7.43;5.33;;;17.20;99.90;;;;;;5088139;28;20201;-70
2023/09/06 06:38:17;;;;;;;7.13;5.40;;;17.30;99.90;;;;;;5088129;28;20172;-70
2023/09/06 06:40:43;;;;;;;7.30;5.30;;;17.40;99.90;;;;;;5069590;28;20191;-68
2023/09/06 06:43:08;;;;;;;9.17;7.00;;;17.50;99.90;;;;;;5087985;28;20282;-68
2023/09/06 06:45:34;;;;;;;8.37;6.30;;;17.20;99.90;;;;;;5087781;28;20263;-68
2023/09/06 06:48:00;;;;;;;11.83;7.20;;;16.80;99.90;;;;;;5087681;28;20192;-68
2023/09/06 06:50:26;;;;;;;14.70;7.53;;;16.60;99.90;;;;;;5087367;28;20461;-68
2023/09/06 06:52:51;;;;;;;15.83;6.40;;;16.40;99.90;;;;;;5087275;28;20597;-68
2023/09/06 06:55:17;;;;;;;9.97;6.90;;;16.40;99.90;;;;;;5085691;28;20216;-68
2023/09/06 06:57:44;;;;;;;22.70;7.87;;;16.40;99.90;;;;;;5089755;28;20234;-68
2023/09/06 07:00:11;;;;;;;18.43;8.20;;;16.40;99.90;;;;;;5091408;28;20942;-68
2023/09/06 07:02:38;;;;;;;13.90;8.83;;;16.50;99.90;;;;;;5089462;28;20529;-68
2023/09/06 07:05:03;;;;;;;12.23;8.60;;;16.50;99.90;;;;;;5091067;28;20503;-68
2023/09/06 07:07:29;;;;;;;13.33;7.40;;;16.40;99.90;;;;;;5090873;28;20920;-68
2023/09/06 07:09:55;;;;;;;15.13;7.80;;;16.50;99.90;;;;;;5090664;28;20215;-67
2023/09/06 07:12:20;;;;;;;12.60;7.13;;;16.50;99.90;;;;;;5090803;28;20214;-68
2023/09/06 07:14:46;;;;;;;10.33;7.67;;;16.60;99.90;;;;;;5090845;28;20260;-68
2023/09/06 07:17:12;;;;;;;9.30;7.60;;;16.70;99.90;;;;;;5089395;28;20186;-68
2023/09/06 07:19:37;;;;;;;6.90;5.10;;;16.80;99.90;;;;;;5090760;28;20190;-67
2023/09/06 07:22:04;;;;;;;8.93;5.60;;;16.90;99.90;;;;;;5090984;28;20190;-67
2023/09/06 07:24:29;;;;;;;8.20;6.10;;;17.20;99.90;;;;;;5089351;28;20175;-67
2023/09/06 07:26:55;;;;;;;17.00;6.23;;;17.20;99.90;;;;;;5090534;28;20519;-67
2023/09/06 07:29:20;;;;;;;12.60;5.50;;;17.10;99.90;;;;;;5090519;28;20760;-68
2023/09/06 07:31:46;;;;;;;11.83;7.17;;;17.20;99.90;;;;;;5090628;28;20186;-67
2023/09/06 07:34:12;;;;;;;9.60;5.87;;;17.20;99.90;;;;;;5090526;28;20186;-68
2023/09/06 07:36:38;;;;;;;12.07;6.90;;;17.20;99.90;;;;;;5090951;28;20195;-67
2023/09/06 07:39:04;;;;;;;9.50;6.67;;;17.30;99.90;;;;;;5090435;28;20213;-68
2023/09/06 07:41:29;;;;;;;9.63;6.57;;;17.40;99.90;;;;;;5090926;28;20450;-67
2023/09/06 07:43:55;;;;;;;13.43;5.97;;;17.40;99.90;;;;;;5090651;28;20179;-67
2023/09/06 07:46:25;;;;;;;9.43;6.80;;;17.40;99.90;;;;;;5090636;28;20220;-67
2023/09/06 07:48:51;;;;;;;12.20;6.73;;;17.50;99.90;;;;;;5089049;28;20184;-67
2023/09/06 07:51:16;;;;;;;9.80;6.57;;;17.60;99.90;;;;;;5090817;28;20419;-67
2023/09/06 07:53:43;;;;;;;7.77;6.30;;;17.70;99.90;;;;;;5090785;28;20435;-68
2023/09/06 07:56:08;;;;;;;7.93;6.57;;;17.70;99.90;;;;;;5089221;28;20214;-67
2023/09/06 07:58:34;;;;;;;7.43;6.37;;;18.00;99.90;;;;;;5089299;28;20937;-68
2023/09/06 08:01:01;;;;;;;8.00;5.90;;;18.10;99.90;;;;;;5090802;28;20673;-68
2023/09/06 08:03:27;;;;;;;13.80;5.93;;;18.20;99.90;;;;;;5089073;28;20438;-68
2023/09/06 08:05:52;;;;;;;10.03;6.03;;;18.30;99.90;;;;;;5090776;28;20971;-68
2023/09/06 08:08:18;;;;;;;12.17;7.10;;;18.40;99.90;;;;;;5090408;28;20181;-68
2023/09/06 08:10:44;;;;;;;8.63;5.70;;;18.50;99.90;;;;;;5090585;28;20669;-68
2023/09/06 08:13:10;;;;;;;12.50;7.10;;;18.60;99.90;;;;;;5090530;28;20677;-67
2023/09/06 08:15:37;;;;;;;6.60;5.23;;;18.70;99.90;;;;;;5090337;28;20439;-68
2023/09/06 08:18:03;;;;;;;8.20;6.83;;;18.80;99.90;;;;;;5090328;28;20556;-68
2023/09/06 08:20:30;;;;;;;9.17;6.50;;;19.00;99.90;;;;;;5090094;28;20432;-68
2023/09/06 08:22:55;;;;;;;15.03;6.43;;;19.10;99.90;;;;;;5089796;28;20411;-68
2023/09/06 08:25:21;;;;;;;7.57;4.80;;;19.20;99.90;;;;;;5089568;28;20432;-68
2023/09/06 08:27:49;;;;;;;7.23;5.57;;;19.30;99.90;;;;;;5089510;28;20744;-68
2023/09/06 08:30:15;;;;;;;7.77;5.37;;;19.40;99.90;;;;;;5089319;28;20202;-68
2023/09/06 08:32:43;;;;;;;7.23;4.80;;;19.60;99.90;;;;;;5089527;28;20447;-68
2023/09/06 08:35:11;;;;;;;5.33;4.60;;;19.70;99.90;;;;;;5089228;28;20525;-67
2023/09/06 08:37:38;;;;;;;9.63;5.17;;;19.70;99.90;;;;;;5089245;28;20421;-68
2023/09/06 08:40:05;;;;;;;5.90;4.73;;;19.90;99.90;;;;;;5089340;28;20423;-67
2023/09/06 08:42:33;;;;;;;9.33;4.77;;;20.10;99.90;;;;;;5089291;28;20429;-68
2023/09/06 08:45:01;;;;;;;6.93;5.50;;;20.20;99.90;;;;;;5087599;28;20474;-68
2023/09/06 08:47:27;;;;;;;10.07;5.90;;;20.30;99.90;;;;;;5089377;28;20427;-68
2023/09/06 08:49:54;;;;;;;5.47;4.20;;;20.40;99.90;;;;;;5087385;28;20474;-68
2023/09/06 08:52:21;;;;;;;7.50;5.27;;;20.60;99.90;;;;;;5088972;28;20448;-68
2023/09/06 08:54:48;;;;;;;6.80;4.83;;;20.80;99.90;;;;;;5088818;28;21244;-68
2023/09/06 08:57:15;;;;;;;6.20;4.97;;;20.90;99.90;;;;;;5086909;28;20432;-68
2023/09/06 08:59:41;;;;;;;12.53;5.20;;;21.10;99.90;;;;;;5088818;28;20420;-68
2023/09/06 09:02:12;;;;;;;8.00;5.03;;;21.20;99.90;;;;;;5087573;28;20974;-68
2023/09/06 09:04:41;;;;;;;5.07;4.60;;;21.30;99.90;;;;;;5088660;28;20413;-68
2023/09/06 09:07:08;;;;;;;6.77;5.40;;;21.50;99.90;;;;;;5088595;28;21263;-68
2023/09/06 09:09:53;;;;;;;6.57;5.40;;;21.70;99.90;;;;;;5088589;28;20478;-67
2023/09/06 09:12:26;;;;;;;10.73;5.10;;;21.80;99.90;;;;;;5088666;28;21147;-68
2023/09/06 09:14:54;;;;;;;9.93;4.37;;;22.10;99.90;;;;;;5088786;28;21202;-68
2023/09/06 09:17:24;;;;;;;6.90;4.70;;;22.40;99.90;;;;;;5088662;28;20421;-68
2023/09/06 09:19:55;;;;;;;8.80;5.50;;;22.80;99.90;;;;;;5088251;28;20413;-68
2023/09/06 09:22:32;;;;;;;6.93;4.90;;;23.30;99.90;;;;;;5088891;28;20561;-68
2023/09/06 09:24:58;;;;;;;9.20;5.70;;;23.60;99.90;;;;;;5088787;28;20508;-68
2023/09/06 09:27:28;;;;;;;9.80;4.27;;;23.90;99.90;;;;;;5087060;28;20521;-68
2023/09/06 09:29:55;;;;;;;7.07;4.17;;;24.40;99.90;;;;;;5088610;28;20469;-67
2023/09/06 09:32:21;;;;;;;7.40;5.07;;;25.00;99.90;;;;;;5088845;28;20834;-67
2023/09/06 09:34:47;;;;;;;7.70;4.70;;;25.20;99.90;;;;;;5088765;28;20484;-67
2023/09/06 09:37:13;;;;;;;5.00;4.50;;;25.70;99.90;;;;;;5088553;28;20463;-68
2023/09/06 09:39:39;;;;;;;7.43;4.77;;;25.70;99.90;;;;;;5087294;28;20878;-67
2023/09/06 09:42:08;;;;;;;4.83;4.30;;;25.90;99.90;;;;;;5088753;28;20186;-67
2023/09/06 09:44:34;;;;;;;5.13;4.63;;;26.50;99.90;;;;;;5088838;28;20269;-65
2023/09/06 09:47:12;;;;;;;19.03;5.13;;;26.80;99.90;;;;;;5088739;28;20621;-68
2023/09/06 09:49:43;;;;;;;5.40;4.90;;;27.10;99.90;;;;;;5088730;28;20214;-69
2023/09/06 09:52:12;;;;;;;5.90;4.50;;;27.10;99.90;;;;;;5088692;28;20413;-68
2023/09/06 09:54:43;;;;;;;7.07;4.87;;;27.30;99.90;;;;;;5088158;28;20467;-68
2023/09/06 09:57:11;;;;;;;4.87;4.47;;;27.70;99.90;;;;;;5087826;28;20432;-68
2023/09/06 09:59:38;;;;;;;14.73;5.50;;;27.70;99.90;;;;;;5086188;28;20420;-68
2023/09/06 10:02:15;;;;;;;4.40;4.00;;;27.70;99.90;;;;;;5086650;28;20448;-68
2023/09/06 10:04:45;;;;;;;6.67;4.60;;;27.80;99.90;;;;;;5088333;28;20451;-66
2023/09/06 10:07:14;;;;;;;7.93;4.77;;;28.20;99.90;;;;;;5087812;28;20516;-67
2023/09/06 10:09:41;;;;;;;6.43;5.17;;;28.40;99.90;;;;;;5087566;28;20460;-67
2023/09/06 10:12:09;;;;;;;9.50;4.50;;;28.60;99.90;;;;;;5086122;28;20420;-67
2023/09/06 10:14:37;;;;;;;5.40;4.90;;;28.90;99.90;;;;;;5087666;28;20413;-67
2023/09/06 10:17:04;;;;;;;5.10;4.53;;;28.90;99.90;;;;;;5087571;28;21007;-67
2023/09/06 10:19:30;;;;;;;9.27;4.73;;;29.10;99.90;;;;;;5087511;28;20477;-69
2023/09/06 10:21:56;;;;;;;5.80;4.50;;;29.30;99.90;;;;;;5086146;28;20424;-68
2023/09/06 10:24:22;;;;;;;5.10;4.60;;;29.40;99.90;;;;;;5085831;28;20262;-67
2023/09/06 10:26:51;;;;;;;8.37;4.90;;;29.50;99.90;;;;;;5087539;28;20198;-67
2023/09/06 10:29:23;;;;;;;7.27;4.80;;;29.60;99.90;;;;;;5087304;28;20507;-67
2023/09/06 10:31:51;;;;;;;11.77;4.70;;;29.80;99.90;;;;;;5087386;28;20471;-67
2023/09/06 10:34:20;;;;;;;7.40;5.33;;;29.90;99.90;;;;;;5085983;28;20424;-67
2023/09/06 10:36:53;;;;;;;5.10;4.60;;;29.90;99.90;;;;;;5087552;28;20433;-67
2023/09/06 10:39:21;;;;;;;6.03;5.17;;;29.90;99.90;;;;;;5086457;28;20916;-68
2023/09/06 10:42:11;;;;;;;4.57;4.10;;;30.00;99.90;;;;;;5086495;28;20813;-68
2023/09/06 10:44:55;;;;;;;5.93;4.30;;;30.00;99.90;;;;;;5087836;28;20409;-68
2023/09/06 10:47:27;;;;;;;4.87;4.33;;;30.00;99.90;;;;;;5087853;28;20404;-68
2023/09/06 10:50:18;;;;;;;5.30;4.30;;;30.20;99.90;;;;;;5087985;28;20463;-67
2023/09/06 10:52:53;;;;;;;7.90;4.70;;;30.40;99.90;;;;;;5087851;28;20421;-66
2023/09/06 10:55:24;;;;;;;5.90;4.70;;;30.40;99.90;;;;;;5087695;28;20492;-67
2023/09/06 10:58:03;;;;;;;7.50;4.97;;;30.60;99.90;;;;;;5087512;28;20424;-67
2023/09/06 11:00:34;;;;;;;7.20;4.60;;;30.60;99.90;;;;;;5087449;28;20451;-68
2023/09/06 11:03:13;;;;;;;5.00;4.50;;;30.70;99.90;;;;;;5086491;28;20424;-67
2023/09/06 11:05:46;;;;;;;6.40;4.40;;;30.90;99.90;;;;;;5087207;28;20440;-67
2023/09/06 11:08:24;;;;;;;9.83;5.10;;;30.90;99.90;;;;;;5087405;28;20408;-67
2023/09/06 11:10:50;;;;;;;5.37;4.87;;;30.90;99.90;;;;;;5085463;28;20463;-68
2023/09/06 11:13:16;;;;;;;7.03;4.50;;;31.00;99.90;;;;;;5087183;28;20436;-68
2023/09/06 11:15:43;;;;;;;8.80;4.60;;;31.10;99.90;;;;;;5087336;28;20471;-68
2023/09/06 11:18:09;;;;;;;6.27;4.30;;;30.80;99.90;;;;;;5087649;28;20454;-68
2023/09/06 11:20:35;;;;;;;6.37;4.80;;;30.90;99.90;;;;;;5087703;28;20421;-66
2023/09/06 11:23:02;;;;;;;6.13;4.20;;;30.90;99.90;;;;;;5087513;28;20466;-67
2023/09/06 11:25:29;;;;;;;6.73;4.60;;;31.10;99.90;;;;;;5087555;28;20440;-68
2023/09/06 11:27:59;;;;;;;6.43;4.13;;;31.30;99.90;;;;;;5087416;28;20408;-67
2023/09/06 11:30:27;;;;;;;4.50;4.10;;;31.50;99.90;;;;;;5087318;28;20841;-68
2023/09/06 11:32:56;;;;;;;4.63;4.23;;;31.60;99.90;;;;;;5087368;28;20447;-68
2023/09/06 11:35:34;;;;;;;6.30;4.40;;;31.50;99.90;;;;;;5087299;28;20433;-68
2023/09/06 11:38:02;;;;;;;4.67;4.27;;;31.70;99.90;;;;;;5087492;28;20409;-68
2023/09/06 11:40:31;;;;;;;6.33;4.27;;;31.80;99.50;;;;;;5087314;28;20420;-67
2023/09/06 11:43:05;;;;;;;8.53;4.37;;;31.70;99.90;;;;;;5087166;28;20505;-67
2023/09/06 11:45:32;;;;;;;5.63;5.13;;;31.80;99.50;;;;;;5091436;28;20444;-67
2023/09/06 11:48:07;;;;;;;5.27;4.77;;;31.80;99.90;;;;;;5091242;28;20424;-68
2023/09/06 11:50:35;;;;;;;6.43;4.17;;;31.70;99.50;;;;;;5090984;28;20474;-67
2023/09/06 11:53:09;;;;;;;6.57;4.73;;;31.70;99.90;;;;;;5091008;28;20420;-67
2023/09/06 11:55:37;;;;;;;10.27;4.40;;;31.80;99.90;;;;;;5090838;28;20451;-68
2023/09/06 11:58:03;;;;;;;7.30;4.17;;;32.10;99.90;;;;;;5091133;28;20412;-68
2023/09/06 12:00:42;;;;;;;5.27;4.30;;;31.80;99.80;;;;;;5090988;28;20424;-68
2023/09/06 12:03:13;;;;;;;5.23;4.10;;;31.80;99.40;;;;;;5089780;28;20240;-67
2023/09/06 12:05:40;;;;;;;5.17;4.50;;;31.90;99.90;;;;;;5090603;28;20447;-69
2023/09/06 12:08:07;;;;;;;4.80;4.40;;;31.90;99.50;;;;;;5090612;28;20424;-68
2023/09/06 12:10:34;;;;;;;6.00;3.67;;;31.80;99.90;;;;;;5090111;28;20468;-68
2023/09/06 12:13:00;;;;;;;4.67;4.00;;;31.80;98.70;;;;;;5088731;28;20908;-68
2023/09/06 12:15:26;;;;;;;5.23;4.40;;;31.80;98.50;;;;;;5089864;28;20447;-66
2023/09/06 12:17:52;;;;;;;4.27;3.80;;;31.90;99.90;;;;;;5090266;28;20182;-67
2023/09/06 12:20:24;;;;;;;5.07;3.80;;;31.80;99.90;;;;;;5090001;28;20889;-66
2023/09/06 12:22:51;;;;;;;4.00;3.63;;;31.70;99.90;;;;;;5089944;28;20934;-67
2023/09/06 12:25:20;;;;;;;4.93;4.03;;;31.60;99.90;;;;;;5089875;28;20432;-67
2023/09/06 12:27:47;;;;;;;4.27;3.87;;;31.70;97.90;;;;;;5089706;28;20453;-67
2023/09/06 12:30:18;;;;;;;3.90;3.50;;;31.80;97.50;;;;;;5089511;28;20468;-67
2023/09/06 12:32:44;;;;;;;3.80;3.50;;;31.80;97.70;;;;;;5087870;28;20417;-67
2023/09/06 12:35:11;;;;;;;4.10;3.80;;;31.90;97.90;;;;;;5089229;28;20437;-67
2023/09/06 12:37:40;;;;;;;4.23;3.83;;;31.80;97.30;;;;;;5089346;28;20428;-67
2023/09/06 12:40:12;;;;;;;4.37;3.73;;;31.90;98.00;;;;;;5089331;28;20431;-68
2023/09/06 12:42:42;;;;;;;7.40;3.70;;;31.70;99.00;;;;;;5089299;28;20431;-67
2023/09/06 12:45:09;;;;;;;6.90;4.40;;;31.70;97.30;;;;;;5089453;28;20435;-67
2023/09/06 12:47:36;;;;;;;4.47;3.60;;;31.70;95.40;;;;;;5089137;28;20515;-67
2023/09/06 12:50:05;;;;;;;4.20;3.77;;;31.80;95.80;;;;;;5089062;28;20468;-67